createdAt,value
2023-03-13T00:01:39.359Z,2.53
2023-03-13T00:04:06.188Z,2.52
2023-03-13T00:06:35.382Z,2.53
2023-03-13T00:09:05.267Z,2.53
2023-03-13T00:11:32.576Z,2.45
2023-03-13T00:14:04.468Z,2.46
2023-03-13T00:16:32.180Z,2.44
2023-03-13T00:18:59.210Z,2.45
2023-03-13T00:21:28.281Z,2.45
2023-03-13T00:23:55.805Z,2.37
2023-03-13T00:26:25.091Z,2.25
2023-03-13T00:28:53.153Z,2.30
2023-03-13T00:31:26.009Z,2.27
2023-03-13T00:33:57.226Z,2.23
2023-03-13T00:36:27.278Z,2.21
2023-03-13T00:38:55.243Z,2.22
2023-03-13T00:41:24.738Z,2.19
2023-03-13T00:43:51.926Z,2.22
2023-03-13T00:46:21.448Z,2.14
2023-03-13T00:48:49.100Z,2.07
2023-03-13T00:51:17.435Z,2.07
2023-03-13T00:53:44.757Z,2.07
2023-03-13T00:56:13.911Z,2.06
2023-03-13T00:58:42.887Z,2.06
2023-03-13T01:01:10.878Z,1.91
2023-03-13T01:03:39.415Z,1.67
2023-03-13T01:06:08.778Z,1.66
2023-03-13T01:08:35.925Z,1.56
2023-03-13T01:11:06.074Z,1.63
2023-03-13T01:13:33.401Z,1.63
2023-03-13T01:16:06.134Z,1.67
2023-03-13T01:18:34.612Z,1.69
2023-03-13T01:21:02.086Z,1.65
2023-03-13T01:23:31.906Z,1.56
2023-03-13T01:25:58.741Z,1.61
2023-03-13T01:28:26.606Z,1.63
2023-03-13T01:30:53.605Z,1.52
2023-03-13T01:33:20.236Z,1.53
2023-03-13T01:35:46.992Z,1.57
2023-03-13T01:38:13.898Z,1.58
2023-03-13T01:40:44.476Z,1.59
2023-03-13T01:43:26.633Z,1.56
2023-03-13T01:46:02.877Z,1.53
2023-03-13T01:48:42.279Z,1.46
2023-03-13T01:51:18.135Z,1.39
2023-03-13T01:53:49.484Z,1.32
2023-03-13T01:56:22.481Z,1.22
2023-03-13T01:58:52.126Z,1.25
2023-03-13T02:01:20.272Z,1.12
2023-03-13T02:03:49.045Z,1.10
2023-03-13T02:06:16.774Z,1.06
2023-03-13T02:08:51.736Z,1.03
2023-03-13T02:11:31.869Z,1.07
2023-03-13T02:13:59.207Z,1.06
2023-03-13T02:16:26.953Z,1.08
2023-03-13T02:18:53.610Z,0.99
2023-03-13T02:21:45.511Z,0.90
2023-03-13T02:24:16.885Z,0.73
2023-03-13T02:26:43.539Z,0.81
2023-03-13T02:29:18.218Z,0.87
2023-03-13T02:31:47.485Z,0.84
2023-03-13T02:34:21.716Z,0.76
2023-03-13T02:36:49.430Z,0.72
2023-03-13T02:39:20.335Z,0.76
2023-03-13T02:41:47.426Z,0.75
2023-03-13T02:44:13.986Z,0.73
2023-03-13T02:46:46.255Z,0.70
2023-03-13T02:49:23.685Z,0.72
2023-03-13T02:51:51.650Z,0.66
2023-03-13T02:54:23.307Z,0.65
2023-03-13T02:56:55.476Z,0.39
2023-03-13T02:59:22.166Z,0.43
2023-03-13T03:01:52.710Z,0.45
2023-03-13T03:04:21.516Z,0.45
2023-03-13T03:06:49.135Z,0.48
2023-03-13T03:09:16.652Z,0.45
2023-03-13T03:11:43.234Z,0.44
2023-03-13T03:14:11.382Z,0.40
2023-03-13T03:16:38.471Z,0.39
2023-03-13T03:19:06.671Z,0.38
2023-03-13T03:21:34.197Z,0.33
2023-03-13T03:24:01.133Z,0.34
2023-03-13T03:26:27.764Z,0.36
2023-03-13T03:28:54.346Z,0.36
2023-03-13T03:31:21.046Z,0.34
2023-03-13T03:33:47.691Z,0.26
2023-03-13T03:36:17.532Z,0.07
2023-03-13T03:38:45.356Z,0.09
2023-03-13T03:41:14.215Z,0.16
2023-03-13T03:43:41.524Z,0.11
2023-03-13T03:46:09.359Z,-0.02
2023-03-13T03:48:36.821Z,-0.07
2023-03-13T03:51:03.888Z,0.07
2023-03-13T03:53:30.833Z,0.10
2023-03-13T03:55:57.419Z,0.19
2023-03-13T03:58:24.359Z,0.23
2023-03-13T04:00:50.933Z,0.24
2023-03-13T04:03:17.594Z,0.18
2023-03-13T04:05:44.505Z,0.21
2023-03-13T04:08:11.127Z,0.21
2023-03-13T04:10:37.792Z,0.01
2023-03-13T04:13:04.441Z,-0.03
2023-03-13T04:15:34.300Z,0.05
2023-03-13T04:18:00.889Z,-0.08
2023-03-13T04:20:28.876Z,-0.01
2023-03-13T04:22:55.536Z,-0.02
2023-03-13T04:25:22.103Z,0.04
2023-03-13T04:27:48.664Z,0.06
2023-03-13T04:30:18.311Z,0.04
2023-03-13T04:32:45.750Z,0.02
2023-03-13T04:35:12.444Z,0.11
2023-03-13T04:37:39.041Z,-0.09
2023-03-13T04:40:07.075Z,-0.08
2023-03-13T04:42:33.668Z,-0.13
2023-03-13T04:45:00.286Z,-0.03
2023-03-13T04:47:26.885Z,-0.08
2023-03-13T04:49:53.452Z,-0.17
2023-03-13T04:52:20.171Z,-0.04
2023-03-13T04:54:46.790Z,-0.03
2023-03-13T04:57:13.416Z,0.04
2023-03-13T04:59:40.101Z,0.06
2023-03-13T05:02:06.862Z,0.07
2023-03-13T05:04:33.526Z,0.01
2023-03-13T05:07:00.178Z,0.04
2023-03-13T05:09:26.896Z,-0.02
2023-03-13T05:11:53.497Z,0.06
2023-03-13T05:14:20.206Z,0.11
2023-03-13T05:16:47.814Z,0.04
2023-03-13T05:19:14.481Z,0.04
2023-03-13T05:21:41.421Z,0.08
2023-03-13T05:24:11.278Z,0.15
2023-03-13T05:26:37.893Z,0.20
2023-03-13T05:29:04.533Z,0.25
2023-03-13T05:31:31.153Z,0.27
2023-03-13T05:33:57.820Z,0.26
2023-03-13T05:36:24.462Z,0.28
2023-03-13T05:38:51.272Z,0.27
2023-03-13T05:41:17.909Z,0.31
2023-03-13T05:43:44.489Z,0.28
2023-03-13T05:46:11.144Z,0.30
2023-03-13T05:48:37.774Z,0.37
2023-03-13T05:51:04.509Z,0.38
2023-03-13T05:53:31.115Z,0.41
2023-03-13T05:55:57.787Z,0.43
2023-03-13T05:58:24.376Z,0.37
2023-03-13T06:00:50.953Z,0.27
2023-03-13T06:03:17.538Z,0.18
2023-03-13T06:05:44.138Z,0.31
2023-03-13T06:08:10.765Z,0.33
2023-03-13T06:10:37.371Z,0.35
2023-03-13T06:13:18.761Z,0.39
2023-03-13T06:15:55.444Z,0.40
2023-03-13T06:18:23.149Z,0.46
2023-03-13T06:20:55.726Z,0.54
2023-03-13T06:23:22.292Z,0.62
2023-03-13T06:25:48.941Z,0.64
2023-03-13T06:28:16.848Z,0.69
2023-03-13T06:30:43.564Z,0.75
2023-03-13T06:33:10.176Z,0.78
2023-03-13T06:35:54.794Z,0.83
2023-03-13T06:38:22.968Z,1.02
2023-03-13T06:40:49.539Z,1.00
2023-03-13T06:43:16.192Z,1.04
2023-03-13T06:45:42.951Z,1.08
2023-03-13T06:48:09.524Z,1.16
2023-03-13T06:50:39.176Z,1.10
2023-03-13T06:53:05.877Z,1.09
2023-03-13T06:55:32.485Z,1.15
2023-03-13T06:57:59.527Z,1.19
2023-03-13T07:00:26.175Z,1.26
2023-03-13T07:02:52.775Z,1.33
2023-03-13T07:05:19.361Z,1.44
2023-03-13T07:07:45.970Z,1.55
2023-03-13T07:10:12.597Z,1.69
2023-03-13T07:12:39.218Z,1.75
2023-03-13T07:15:06.764Z,1.84
2023-03-13T07:17:33.469Z,2.02
2023-03-13T07:20:00.219Z,2.03
2023-03-13T07:22:27.018Z,2.02
2023-03-13T07:24:53.648Z,2.05
2023-03-13T07:27:21.357Z,2.09
2023-03-13T07:29:48.311Z,2.19
2023-03-13T07:32:15.090Z,2.28
2023-03-13T07:34:44.595Z,2.48
2023-03-13T07:37:13.158Z,2.45
2023-03-13T07:39:39.924Z,2.46
2023-03-13T07:42:06.666Z,2.49
2023-03-13T07:44:33.279Z,2.51
2023-03-13T07:47:00.967Z,2.57
2023-03-13T07:49:27.638Z,2.67
2023-03-13T07:51:54.512Z,2.86
2023-03-13T07:54:21.123Z,2.91
2023-03-13T07:56:47.698Z,2.99
2023-03-13T07:59:14.315Z,3.12
2023-03-13T08:01:40.921Z,3.24
2023-03-13T08:04:10.011Z,3.30
2023-03-13T08:06:36.915Z,3.37
2023-03-13T08:09:04.383Z,3.46
2023-03-13T08:11:31.013Z,3.60
2023-03-13T08:13:58.011Z,3.66
2023-03-13T08:16:31.722Z,3.98
2023-03-13T08:18:59.330Z,4.08
2023-03-13T08:21:28.816Z,4.13
2023-03-13T08:23:57.981Z,4.07
2023-03-13T08:26:26.961Z,4.16
2023-03-13T08:28:56.620Z,4.24
2023-03-13T08:31:26.286Z,4.34
2023-03-13T08:33:53.355Z,4.42
2023-03-13T08:36:24.969Z,4.49
2023-03-13T08:38:53.531Z,4.53
2023-03-13T08:41:23.702Z,4.67
2023-03-13T08:43:53.057Z,4.71
2023-03-13T08:46:20.085Z,4.76
2023-03-13T08:48:51.952Z,4.88
2023-03-13T08:51:20.311Z,5.01
2023-03-13T08:53:47.200Z,5.08
2023-03-13T08:56:16.538Z,5.28
2023-03-13T08:58:43.633Z,5.29
2023-03-13T09:01:13.137Z,5.36
2023-03-13T09:03:41.318Z,5.37
2023-03-13T09:06:09.024Z,5.39
2023-03-13T09:08:36.238Z,5.43
2023-03-13T09:11:06.270Z,5.45
2023-03-13T09:13:35.569Z,5.46
2023-03-13T09:16:06.643Z,5.52
2023-03-13T09:18:33.968Z,5.53
2023-03-13T09:21:01.234Z,5.64
2023-03-13T09:23:28.088Z,5.64
2023-03-13T09:25:57.201Z,5.68
2023-03-13T09:28:25.287Z,5.76
2023-03-13T09:30:53.170Z,5.73
2023-03-13T09:33:21.464Z,5.75
2023-03-13T09:35:50.880Z,5.76
2023-03-13T09:38:19.235Z,5.94
2023-03-13T09:40:59.706Z,5.92
2023-03-13T09:43:47.065Z,5.97
2023-03-13T09:46:23.538Z,6.06
2023-03-13T09:48:56.020Z,6.14
2023-03-13T09:51:29.391Z,6.14
2023-03-13T09:54:03.894Z,6.20
2023-03-13T09:56:39.170Z,6.29
2023-03-13T09:59:16.846Z,6.34
2023-03-13T10:01:44.451Z,6.39
2023-03-13T10:04:29.628Z,6.63
2023-03-13T10:06:56.796Z,6.72
2023-03-13T10:09:29.718Z,6.66
2023-03-13T10:12:04.624Z,6.74
2023-03-13T10:14:39.465Z,6.73
2023-03-13T10:17:16.071Z,6.79
2023-03-13T10:19:43.611Z,6.87
2023-03-13T10:22:18.592Z,6.97
2023-03-13T10:24:52.108Z,7.12
2023-03-13T10:27:18.882Z,7.22
2023-03-13T10:29:45.617Z,7.19
2023-03-13T10:32:15.038Z,7.40
2023-03-13T10:35:00.999Z,7.56
2023-03-13T10:37:30.244Z,7.43
2023-03-13T10:40:12.224Z,7.46
2023-03-13T10:42:44.252Z,7.47
2023-03-13T10:45:17.240Z,7.45
2023-03-13T10:47:43.913Z,7.67
2023-03-13T10:50:20.983Z,7.86
2023-03-13T10:52:48.927Z,7.94
2023-03-13T10:55:19.939Z,7.77
2023-03-13T10:58:03.193Z,7.88
2023-03-13T11:00:39.561Z,7.85
2023-03-13T11:03:08.003Z,7.91
2023-03-13T11:05:40.452Z,7.96
2023-03-13T11:08:18.942Z,7.87
2023-03-13T11:11:00.920Z,7.97
2023-03-13T11:13:37.366Z,7.95
2023-03-13T11:16:26.284Z,8.17
2023-03-13T11:19:08.206Z,8.14
2023-03-13T11:21:43.678Z,8.29
2023-03-13T11:24:39.399Z,8.36
2023-03-13T11:27:06.713Z,8.28
2023-03-13T11:29:58.547Z,8.20
2023-03-13T11:32:35.413Z,8.18
2023-03-13T11:35:12.280Z,8.22
2023-03-13T11:37:41.454Z,8.29
2023-03-13T11:40:24.213Z,8.35
2023-03-13T11:42:50.782Z,8.45
2023-03-13T11:45:48.756Z,8.50
2023-03-13T11:48:24.345Z,8.68
2023-03-13T11:51:14.135Z,8.83
2023-03-13T11:53:57.018Z,8.97
2023-03-13T11:56:43.609Z,9.11
2023-03-13T11:59:32.121Z,9.26
2023-03-13T12:02:10.532Z,9.37
2023-03-13T12:04:43.863Z,9.51
2023-03-13T12:07:30.083Z,9.62
2023-03-13T12:10:02.227Z,9.76
2023-03-13T12:12:40.591Z,9.89
2023-03-13T12:15:31.491Z,10.11
2023-03-13T12:18:01.319Z,10.15
2023-03-13T12:20:39.817Z,10.26
2023-03-13T12:23:36.031Z,10.36
2023-03-13T12:26:19.538Z,10.48
2023-03-13T12:29:09.094Z,10.44
2023-03-13T12:31:47.537Z,10.52
2023-03-13T12:34:22.360Z,10.56
2023-03-13T12:36:54.271Z,10.51
2023-03-13T12:39:50.080Z,10.59
2023-03-13T12:42:44.840Z,10.60
2023-03-13T12:45:18.752Z,10.64
2023-03-13T12:48:06.334Z,10.67
2023-03-13T12:51:03.463Z,10.81
2023-03-13T12:54:00.678Z,10.89
2023-03-13T12:56:42.458Z,10.95
2023-03-13T12:59:18.825Z,10.98
2023-03-13T13:01:50.979Z,11.03
2023-03-13T13:04:24.528Z,11.07
2023-03-13T13:06:55.865Z,11.04
2023-03-13T13:09:26.132Z,11.04
2023-03-13T13:11:55.371Z,11.11
2023-03-13T13:14:21.960Z,11.25
2023-03-13T13:16:56.148Z,11.30
2023-03-13T13:19:23.717Z,11.46
2023-03-13T13:22:20.761Z,11.62
2023-03-13T13:24:53.396Z,11.73
2023-03-13T13:27:38.568Z,11.82
2023-03-13T13:30:20.430Z,11.93
2023-03-13T13:32:52.152Z,12.06
2023-03-13T13:35:35.716Z,12.09
2023-03-13T13:38:17.542Z,12.22
2023-03-13T13:40:59.611Z,12.45
2023-03-13T13:43:31.225Z,12.52
2023-03-13T13:46:09.098Z,12.56
2023-03-13T13:48:39.853Z,12.62
2023-03-13T13:51:26.139Z,12.73
2023-03-13T13:53:56.450Z,12.87
2023-03-13T13:56:41.211Z,12.99
2023-03-13T13:59:24.877Z,13.15
2023-03-13T14:02:09.793Z,13.19
2023-03-13T14:04:45.046Z,13.33
2023-03-13T14:07:19.892Z,13.31
2023-03-13T14:10:18.018Z,13.33
2023-03-13T14:12:51.360Z,13.25
2023-03-13T14:15:20.750Z,13.31
2023-03-13T14:17:50.097Z,13.40
2023-03-13T14:20:37.494Z,13.35
2023-03-13T14:23:07.566Z,13.28
2023-03-13T14:25:50.370Z,13.30
2023-03-13T14:28:21.517Z,13.26
2023-03-13T14:30:50.342Z,13.26
2023-03-13T14:33:17.858Z,13.20
2023-03-13T14:35:45.020Z,13.21
2023-03-13T14:38:27.894Z,13.24
2023-03-13T14:40:56.563Z,13.30
2023-03-13T14:43:35.462Z,13.36
2023-03-13T14:46:15.523Z,13.48
2023-03-13T14:48:42.358Z,13.57
2023-03-13T14:51:18.531Z,13.68
2023-03-13T14:54:01.708Z,13.76
2023-03-13T14:56:35.707Z,13.91
2023-03-13T14:59:17.912Z,13.90
2023-03-13T15:01:45.330Z,13.85
2023-03-13T15:04:12.438Z,13.89
2023-03-13T15:06:39.157Z,13.89
2023-03-13T15:09:22.437Z,13.96
2023-03-13T15:11:54.963Z,13.93
2023-03-13T15:14:34.261Z,14.01
2023-03-13T15:17:00.893Z,14.03
2023-03-13T15:19:27.553Z,14.22
2023-03-13T15:21:54.767Z,14.21
2023-03-13T15:24:21.368Z,14.24
2023-03-13T15:26:49.193Z,14.25
2023-03-13T15:29:18.261Z,14.22
2023-03-13T15:31:45.099Z,14.18
2023-03-13T15:34:14.169Z,14.17
2023-03-13T15:36:42.484Z,14.20
2023-03-13T15:39:15.903Z,14.14
2023-03-13T15:41:42.968Z,14.07
2023-03-13T15:44:09.559Z,14.04
2023-03-13T15:46:36.554Z,13.90
2023-03-13T15:49:03.788Z,13.83
2023-03-13T15:51:30.824Z,13.79
2023-03-13T15:53:57.478Z,13.72
2023-03-13T15:56:24.199Z,13.65
2023-03-13T15:58:51.483Z,13.55
2023-03-13T16:01:18.870Z,13.51
2023-03-13T16:03:45.700Z,13.46
2023-03-13T16:06:16.508Z,13.43
2023-03-13T16:08:43.985Z,13.40
2023-03-13T16:11:14.058Z,13.41
2023-03-13T16:13:40.807Z,13.41
2023-03-13T16:16:29.385Z,13.39
2023-03-13T16:19:04.106Z,13.33
2023-03-13T16:21:33.213Z,13.26
2023-03-13T16:24:00.145Z,13.23
2023-03-13T16:26:30.242Z,13.15
2023-03-13T16:28:58.176Z,13.09
2023-03-13T16:31:28.152Z,12.96
2023-03-13T16:33:56.023Z,12.90
2023-03-13T16:36:25.889Z,12.81
2023-03-13T16:38:52.872Z,12.70
2023-03-13T16:41:21.985Z,12.63
2023-03-13T16:43:49.159Z,12.50
2023-03-13T16:46:17.189Z,12.36
2023-03-13T16:48:44.816Z,12.26
2023-03-13T16:51:17.467Z,12.16
2023-03-13T16:53:46.113Z,12.06
2023-03-13T16:56:33.725Z,11.93
2023-03-13T16:59:02.549Z,11.81
2023-03-13T17:01:30.024Z,11.73
2023-03-13T17:03:58.224Z,11.58
2023-03-13T17:06:27.909Z,11.51
2023-03-13T17:08:56.342Z,11.42
2023-03-13T17:11:23.635Z,11.33
2023-03-13T17:13:52.697Z,11.29
2023-03-13T17:16:24.109Z,11.22
2023-03-13T17:18:53.428Z,11.14
2023-03-13T17:21:23.699Z,11.06
2023-03-13T17:23:51.069Z,10.90
2023-03-13T17:26:23.215Z,10.83
2023-03-13T17:28:55.816Z,10.75
2023-03-13T17:31:24.220Z,10.69
2023-03-13T17:33:51.104Z,10.65
2023-03-13T17:36:22.904Z,10.58
2023-03-13T17:38:52.442Z,10.54
2023-03-13T17:41:22.132Z,10.50
2023-03-13T17:43:48.711Z,10.45
2023-03-13T17:46:20.789Z,10.40
2023-03-13T17:48:49.363Z,10.34
2023-03-13T17:51:19.767Z,10.27
2023-03-13T17:53:47.037Z,10.17
2023-03-13T17:56:16.606Z,10.13
2023-03-13T17:58:43.907Z,10.07
2023-03-13T18:01:13.552Z,10.06
2023-03-13T18:03:41.468Z,10.07
2023-03-13T18:06:17.570Z,10.01
2023-03-13T18:08:44.910Z,10.00
2023-03-13T18:11:12.184Z,9.96
2023-03-13T18:13:39.446Z,9.93
2023-03-13T18:16:30.329Z,9.92
2023-03-13T18:18:57.409Z,9.92
2023-03-13T18:21:24.629Z,9.90
2023-03-13T18:23:53.441Z,9.95
2023-03-13T18:26:21.411Z,9.98
2023-03-13T18:28:48.159Z,9.98
2023-03-13T18:31:14.908Z,10.01
2023-03-13T18:33:41.900Z,10.06
2023-03-13T18:36:18.605Z,10.02
2023-03-13T18:38:46.222Z,10.05
2023-03-13T18:41:15.050Z,10.07
2023-03-13T18:43:42.708Z,10.07
2023-03-13T18:46:16.251Z,10.07
2023-03-13T18:48:42.868Z,10.06
2023-03-13T18:51:13.126Z,10.08
2023-03-13T18:53:39.933Z,10.08
2023-03-13T18:56:15.389Z,10.06
2023-03-13T18:58:42.831Z,10.08
2023-03-13T19:01:13.213Z,10.09
2023-03-13T19:03:40.013Z,10.13
2023-03-13T19:06:18.910Z,10.14
2023-03-13T19:08:47.634Z,10.14
2023-03-13T19:11:17.608Z,10.08
2023-03-13T19:13:44.532Z,10.08
2023-03-13T19:16:18.168Z,10.09
2023-03-13T19:18:46.349Z,10.12
2023-03-13T19:21:19.419Z,10.10
2023-03-13T19:23:46.425Z,10.07
2023-03-13T19:26:17.894Z,10.12
2023-03-13T19:28:44.837Z,10.17
2023-03-13T19:31:11.449Z,10.14
2023-03-13T19:33:38.198Z,10.15
2023-03-13T19:36:10.836Z,10.08
2023-03-13T19:38:39.857Z,10.07
2023-03-13T19:41:08.420Z,10.03
2023-03-13T19:43:35.386Z,10.02
2023-03-13T19:46:02.012Z,9.99
2023-03-13T19:48:28.565Z,9.96
2023-03-13T19:50:55.162Z,9.90
2023-03-13T19:53:21.783Z,9.87
2023-03-13T19:55:48.424Z,9.86
2023-03-13T19:58:15.693Z,9.83
2023-03-13T20:00:42.290Z,9.80
2023-03-13T20:03:08.851Z,9.77
2023-03-13T20:05:35.468Z,9.76
2023-03-13T20:08:02.030Z,9.75
2023-03-13T20:10:28.668Z,9.77
2023-03-13T20:12:55.294Z,9.81
2023-03-13T20:15:21.969Z,9.83
2023-03-13T20:17:48.532Z,9.89
2023-03-13T20:20:16.064Z,9.90
2023-03-13T20:22:42.651Z,9.87
2023-03-13T20:25:09.777Z,9.84
2023-03-13T20:27:37.371Z,9.76
2023-03-13T20:30:04.368Z,9.61
2023-03-13T20:32:31.196Z,9.54
2023-03-13T20:34:57.853Z,9.40
2023-03-13T20:37:24.433Z,9.33
2023-03-13T20:39:51.048Z,9.29
2023-03-13T20:42:17.658Z,9.17
2023-03-13T20:44:45.754Z,9.15
2023-03-13T20:47:12.520Z,9.00
2023-03-13T20:49:41.401Z,8.88
2023-03-13T20:52:08.120Z,8.76
2023-03-13T20:54:34.780Z,8.50
2023-03-13T20:57:02.471Z,8.45
2023-03-13T20:59:29.049Z,8.39
2023-03-13T21:01:55.790Z,8.34
2023-03-13T21:04:22.506Z,8.30
2023-03-13T21:06:50.067Z,8.17
2023-03-13T21:09:16.976Z,8.05
2023-03-13T21:11:44.526Z,7.97
2023-03-13T21:14:11.171Z,7.74
2023-03-13T21:16:37.900Z,7.65
2023-03-13T21:19:04.553Z,7.62
2023-03-13T21:21:31.175Z,7.52
2023-03-13T21:23:57.789Z,7.53
2023-03-13T21:26:24.497Z,7.51
2023-03-13T21:28:52.981Z,7.55
2023-03-13T21:31:23.148Z,7.51
2023-03-13T21:33:50.238Z,7.44
2023-03-13T21:36:20.969Z,7.33
2023-03-13T21:38:49.177Z,7.21
2023-03-13T21:41:18.857Z,7.01
2023-03-13T21:43:45.543Z,7.00
2023-03-13T21:46:15.483Z,6.96
2023-03-13T21:51:15.770Z,6.80
2023-03-13T21:53:44.419Z,6.77
2023-03-13T21:56:15.303Z,6.58
2023-03-13T21:58:42.516Z,6.50
2023-03-13T22:01:09.285Z,6.45
2023-03-13T22:03:35.997Z,6.37
2023-03-13T22:06:02.642Z,6.37
2023-03-13T22:08:29.227Z,6.33
2023-03-13T22:10:55.950Z,6.26
2023-03-13T22:13:22.591Z,6.12
2023-03-13T22:15:50.537Z,6.05
2023-03-13T22:18:17.429Z,6.02
2023-03-13T22:20:44.297Z,6.01
2023-03-13T22:23:12.170Z,5.98
2023-03-13T22:25:40.512Z,5.76
2023-03-13T22:28:07.422Z,5.77
2023-03-13T22:30:34.554Z,5.76
2023-03-13T22:33:01.211Z,5.81
2023-03-13T22:35:27.907Z,5.83
2023-03-13T22:37:54.560Z,5.74
2023-03-13T22:40:21.122Z,5.73
2023-03-13T22:42:47.735Z,5.66
2023-03-13T22:45:14.344Z,5.64
2023-03-13T22:47:40.977Z,5.67
2023-03-13T22:50:09.633Z,5.75
2023-03-13T22:52:36.347Z,5.74
2023-03-13T22:55:03.204Z,5.53
2023-03-13T22:57:29.902Z,5.56
2023-03-13T22:59:59.184Z,5.33
2023-03-13T23:02:27.431Z,5.28
2023-03-13T23:04:57.797Z,5.32
2023-03-13T23:07:28.380Z,5.30
2023-03-13T23:09:55.590Z,5.26
2023-03-13T23:12:24.265Z,5.25
2023-03-13T23:14:51.978Z,5.19
2023-03-13T23:17:18.834Z,4.94
2023-03-13T23:19:45.518Z,4.89
2023-03-13T23:22:17.657Z,4.75
2023-03-13T23:24:44.608Z,4.86
2023-03-13T23:27:11.265Z,4.86
2023-03-13T23:29:37.871Z,4.71
2023-03-13T23:32:04.662Z,4.57
2023-03-13T23:34:31.357Z,4.58
2023-03-13T23:36:58.219Z,4.52
2023-03-13T23:39:24.981Z,4.58
2023-03-13T23:41:51.617Z,4.60
2023-03-13T23:44:18.397Z,4.65
2023-03-13T23:46:44.966Z,4.60
2023-03-13T23:49:12.892Z,4.60
2023-03-13T23:51:39.777Z,4.54
2023-03-13T23:54:06.672Z,4.44
2023-03-13T23:56:33.704Z,4.45
2023-03-13T23:59:00.313Z,4.47
